Tiempo atmosférico en la estación meteorológica de Fuente Palmera, Córdoba (120 m.)



Fecha
DESCASC
Temp. máxima en grados centígrados (hora)
DESCASC
Temp. mínima en grados centígrados (hora)
DESCASC
Temp. media en grados centígrados
DESCASC
Racha de viento máxima en m/sg (hora)
DESCASC
Velocidad máxima media en intervalos de 10 minutos(hora)
DESCASC
Precipitaciones diarias en mm
DESCASC
Precipitaciones de 00:00 a 06:00 en mm
DESCASC
Precipitaciones de 06:00 a 12:00 en mm
DESCASC
Precipitaciones de 12:00 a 18:00 en mm
DESCASC
Precipitaciones de 18:00 a 24:00 en mm
DESCASC
18-08-2019 37.4 (17:40) 20.6 (07:30) 29 13.61 (15:40) 6.11 (19:40) 0 0 0 0 0
17-08-2019 40.6 (17:50) 20.5 (07:20) 30.5 7.5 (22:40) 4.17 (18:20) 0 0 0 0 0
16-08-2019 39.2 (17:10) 21.7 (07:40) 30.5 8.33 (17:40) 5 (17:50) 0 0 0 0 0
15-08-2019 39.9 (18:50) 20.2 (00:00) 30.1 7.22 (22:10) 5 (22:00) 0 0 0 0 0
14-08-2019 38.2 (19:00) 18.2 (00:00) 28.2 6.94 (00:10) 4.44 (00:20) 0 0 0 0 0
13-08-2019 36.7 (19:40) 18.1 (00:00) 27.4 5.83 (18:00) 3.61 (23:50) 0 0 0 0 0
12-08-2019 34.4 (18:50) 19.4 (00:00) 26.9 8.33 (02:50) 4.17 (09:00) 0 0 0 0 0
11-08-2019 34.4 (17:00) 19.2 (00:00) 26.8 9.44 (20:10) 6.39 (20:10) 0 0 0 0 0
10-08-2019 36.1 (17:40) 21.1 (00:00) 28.6 8.61 (18:20) 4.72 (19:40) 0 0 0 0 0
09-08-2019 36.3 (17:50) 19.5 (00:00) 27.9 9.44 (16:50) 5.28 (20:40) 0 0 0 0 0
08-08-2019 37.9 (17:40) 20.3 (00:00) 29.1 8.61 (15:20) 5.28 (19:20) 0 0 0 0 0
07-08-2019 34.6 (17:50) 19.4 (00:00) 27 6.67 (16:00) 4.17 (16:00) 0 0 0 0 0
06-08-2019 37.7 (17:40) 17.9 (00:00) 27.8 8.33 (18:30) 4.72 (18:30) 0 0 0 0 0
05-08-2019 38.5 (18:00) 19.2 (00:00) 28.9 8.89 (18:00) 5.28 (18:50) 0 0 0 0 0
04-08-2019 37.8 (18:20) 19.3 (00:00) 28.5 8.61 (22:00) 5.28 (21:50) 0 0 0 0 0
03-08-2019 36.5 (17:40) 17.9 (00:00) 27.2 9.44 (18:50) 5.83 (18:50) 0 0 0 0 0
02-08-2019 38.3 (17:20) 18.5 (00:00) 28.4 9.17 (19:40) 5.83 (19:30) 0 0 0 0 0
01-08-2019 37.3 (17:50) 22.5 (00:00) 29.9 8.06 (22:10) 4.44 (22:10) 0 0 0 0 0
31-07-2019 37.3 (17:50) 20.4 (00:00) 28.8 10.28 (16:40) 5.83 (22:20) 0 0 0 0 0
30-07-2019 37.5 (18:30) 20.6 (00:00) 29.1 9.44 (00:40) 6.11 (01:20) 0 0 0 0 0
29-07-2019 36.2 (18:20) 18.9 (00:00) 27.6 11.94 (18:20) 5 (20:20) 0 0 0 0 0
28-07-2019 33.6 (18:40) 20.3 (00:00) 26.9 10.56 (21:50) 6.11 (21:40) 0 0 0 0 0
27-07-2019 29.5 (16:00) 18.5 (00:00) 24 11.94 (19:20) 6.94 (17:00) 0 0 0 0 0
26-07-2019 33.8 (17:30) 20.8 (00:00) 27.3 11.67 (18:20) 6.67 (20:10) 0 0 0 0 0
25-07-2019 36.6 (16:10) 21.9 (00:00) 29.2 12.22 (18:40) 7.5 (18:50) 0 0 0 0 0
24-07-2019 38.9 (17:20) 23.2 (00:00) 31.1 8.89 (17:40) 5 (19:30) 0 0 0 0 0
23-07-2019 40.2 (16:40) 24 (00:00) 32.1 10.56 (18:40) 6.67 (19:40) 0 0 0 0 0
22-07-2019 39.7 (18:30) 23.5 (00:00) 31.6 10.56 (23:50) 6.11 (23:50) 0 0 0 0 0
21-07-2019 39.6 (17:20) 22.7 (00:00) 31.1 8.06 (19:00) 5 (21:00) 0 0 0 0 0

Gráficas

Temp. máximas Temp. mínimas Temp. medias Precipitaciones Rachas de viento máximas Velocidades máximas media en intervalos de 10 minutos

Datos horarios

Fecha y hora oficial Temperatura (ºC) Velocidad del viento (km/h) Dirección del viento Racha (km/h) Dirección de racha Precipitación (mm) Presión (hPa) Tendencia (hPa) Humedad (%)
2019-08-19 23:00:00 28.3 9 Sudoeste 26 Sudoeste 0 -- -- 31
2019-08-19 22:00:00 29.9 11 Sudoeste 29 Sudoeste 0 -- -- 26
2019-08-19 21:00:00 32.4 17 Sudoeste 29 Oeste 0 -- -- 21
2019-08-19 20:00:00 34.9 15 Oeste 28 Oeste 0 -- -- 28
2019-08-19 19:00:00 35.6 17 Oeste 29 Oeste 0 -- -- 24
2019-08-19 18:00:00 36.1 12 Oeste 33 Oeste 0 -- -- 20
2019-08-19 17:00:00 35.9 17 Oeste 31 Oeste 0 -- -- 17
2019-08-19 16:00:00 35.1 14 Oeste 27 Oeste 0 -- -- 22
2019-08-19 15:00:00 33.8 13 Oeste 26 Noroeste 0 -- -- 25
2019-08-19 14:00:00 33 10 Oeste 22 Oeste 0 -- -- 28
2019-08-19 13:00:00 31.2 6 Oeste 14 Sudoeste 0 -- -- 36
2019-08-19 12:00:00 29.4 5 Sur 14 Sur 0 -- -- 40
2019-08-19 11:00:00 27.2 5 Sudoeste 10 Sur 0 -- -- 47
2019-08-19 10:00:00 25.1 4 Sudoeste 8 Sur 0 -- -- 53
2019-08-19 09:00:00 22.4 2 Sur 6 Sur 0 -- -- 61
2019-08-19 08:00:00 19.2 0 Calma 4 Este 0 -- -- 67
2019-08-19 07:00:00 19.7 2 Sudeste 4 Sudeste 0 -- -- 65
2019-08-19 06:00:00 19.9 0 Calma 5 Noroeste 0 -- -- 63
2019-08-19 05:00:00 20.6 3 Este 4 Este 0 -- -- 61
2019-08-19 04:00:00 21.5 2 Sudeste 6 Oeste 0 -- -- 58
2019-08-19 03:00:00 22.4 3 Oeste 7 Sudoeste 0 -- -- 54
2019-08-19 02:00:00 23.5 4 Sudoeste 11 Sudoeste 0 -- -- 50
2019-08-19 01:00:00 24.8 6 Sudoeste 19 Sudoeste 0 -- -- 46
2019-08-19 00:00:00 26.1 11 Sudoeste 28 Sudoeste 0 -- -- 42
2019-08-18 23:00:00 27.7 15 Sudoeste 32 Oeste 0 -- -- 38
2019-08-18 22:00:00 30.4 16 Oeste 27 Sudoeste 0 -- -- 30
2019-08-18 21:00:00 33.2 14 Sudoeste 37 Sudoeste 0 -- -- 25
2019-08-18 20:00:00 35.7 20 Oeste 34 Oeste 0 -- -- 21
2019-08-18 19:00:00 36.9 18 Oeste 32 Oeste 0 -- -- 19
2019-08-18 18:00:00 37.1 16 Oeste 36 Oeste 0 -- -- 20
2019-08-18 17:00:00 36.9 18 Oeste 32 Sudoeste 0 -- -- 21
2019-08-18 16:00:00 36.7 17 Sudoeste 49 Sudoeste 0 -- -- 19
2019-08-18 15:00:00 35.8 13 Oeste 28 Oeste 0 -- -- 22
2019-08-18 14:00:00 34.3 13 Oeste 24 Sudoeste 0 -- -- 26
2019-08-18 13:00:00 33 11 Oeste 24 Oeste 0 -- -- 26
2019-08-18 12:00:00 30.9 10 Oeste 18 Oeste 0 -- -- 28
2019-08-18 11:00:00 28.6 7 Oeste 15 Sudoeste 0 -- -- 31
2019-08-18 10:00:00 25.3 3 Norte 6 Norte 0 -- -- 37
2019-08-18 09:00:00 22.9 3 Nordeste 5 Sudeste 0 -- -- 43
2019-08-18 08:00:00 20.9 5 Sudeste 7 Este 0 -- -- 48
2019-08-18 07:00:00 21 4 Sudeste 9 Este 0 -- -- 44
2019-08-18 06:00:00 21.6 3 Este 7 Sudeste 0 -- -- 45
2019-08-18 05:00:00 22.2 2 Este 4 Este 0 -- -- 44
2019-08-18 04:00:00 23.6 2 Sudoeste 9 Sur 0 -- -- 41
2019-08-18 03:00:00 24.9 3 Sur 9 Sudoeste 0 -- -- 39
2019-08-18 02:00:00 26.9 3 Sudoeste 20 Sudoeste 0 -- -- 34
2019-08-18 01:00:00 28.3 12 Sudoeste 19 Sudoeste 0 -- -- 29
2019-08-18 00:00:00 29.9 7 Sudoeste 18 Sudoeste 0 -- -- 26
2019-08-17 23:00:00 32.4 13 Oeste 27 Oeste 0 -- -- 22
2019-08-17 22:00:00 33.7 13 Oeste 24 Oeste 0 -- -- 20
2019-08-17 21:00:00 35.9 13 Oeste 21 Oeste 0 -- -- 18
2019-08-17 20:00:00 38.9 14 Oeste 26 Oeste 0 -- -- 15
2019-08-17 19:00:00 39.9 15 Oeste 23 Sudoeste 0 -- -- 14
2019-08-17 18:00:00 40.6 12 Oeste 24 Oeste 0 -- -- 11
2019-08-17 17:00:00 40.2 14 Oeste 25 Oeste 0 -- -- 12
2019-08-17 16:00:00 39.4 7 Sudoeste 20 Sudoeste 0 -- -- 12
2019-08-17 15:00:00 38.8 6 Sudoeste 20 Este 0 -- -- 13
2019-08-17 14:00:00 37.1 6 Sudeste 17 Sudeste 0 -- -- 15
2019-08-17 13:00:00 34.7 7 Sudeste 15 Sudeste 0 -- -- 21
2019-08-17 12:00:00 32 8 Este 15 Nordeste 0 -- -- 26
2019-08-17 11:00:00 29 8 Nordeste 15 Nordeste 0 -- -- 32
2019-08-17 10:00:00 26.2 8 Nordeste 12 Nordeste 0 -- -- 37
2019-08-17 09:00:00 23.1 6 Este 10 Este 0 -- -- 47
2019-08-17 08:00:00 20.9 4 Este 7 Este 0 -- -- 52
2019-08-17 07:00:00 21.2 4 Sudeste 6 Este 0 -- -- 52
2019-08-17 06:00:00 22.2 4 Sudeste 5 Sudeste 0 -- -- 49
2019-08-17 05:00:00 22.9 0 Calma 4 Noroeste 0 -- -- 45
2019-08-17 04:00:00 24.2 2 Noroeste 13 Sudoeste 0 -- -- 42
2019-08-17 03:00:00 25.4 9 Sudoeste 15 Sudoeste 0 -- -- 38
2019-08-17 02:00:00 26.5 6 Sur 10 Sudoeste 0 -- -- 35
2019-08-17 01:00:00 28.3 9 Sudoeste 23 Sudoeste 0 -- -- 32
2019-08-17 00:00:00 29.8 7 Oeste 18 Sudoeste 0 -- -- 27
2019-08-16 23:00:00 31.2 11 Sudoeste 22 Sudoeste 0 -- -- 25
2019-08-16 22:00:00 32.8 12 Oeste 25 Sudoeste 0 -- -- 24
2019-08-16 21:00:00 35.2 10 Oeste 22 Oeste 0 -- -- 22
2019-08-16 20:00:00 38 12 Oeste 28 Oeste 0 -- -- 18
2019-08-16 19:00:00 38.7 16 Oeste 30 Oeste 0 -- -- 17
2019-08-16 18:00:00 38.9 15 Oeste 30 Oeste 0 -- -- 17
2019-08-16 17:00:00 39 13 Oeste 25 Oeste 0 -- -- 17
2019-08-16 16:00:00 38.3 8 Sudoeste 23 Oeste 0 -- -- 18
2019-08-16 15:00:00 37 9 Sudoeste 21 Oeste 0 -- -- 19
2019-08-16 14:00:00 35.8 6 Oeste 18 Oeste 0 -- -- 21
2019-08-16 13:00:00 33.5 7 Oeste 15 Oeste 0 -- -- 25
2019-08-16 12:00:00 31.7 6 Sur 13 Sur 0 -- -- 29
2019-08-16 11:00:00 29.7 2 Oeste 7 Nordeste 0 -- -- 33
2019-08-16 10:00:00 26.9 4 Sudeste 8 Este 0 -- -- 40
2019-08-16 09:00:00 23.6 5 Este 9 Este 0 -- -- 47
2019-08-16 08:00:00 21.8 4 Sudeste 8 Este 0 -- -- 51
2019-08-16 07:00:00 22 4 Sudeste 5 Sudeste 0 -- -- 52
2019-08-16 06:00:00 22.9 2 Sudeste 6 Noroeste 0 -- -- 48
2019-08-16 05:00:00 24 5 Noroeste 13 Sudoeste 0 -- -- 44
2019-08-16 04:00:00 25.1 7 Sur 16 Sur 0 -- -- 41
2019-08-16 03:00:00 26 9 Sudoeste 14 Sur 0 -- -- 39
2019-08-16 02:00:00 27.5 8 Sudoeste 16 Sudoeste 0 -- -- 34
2019-08-16 01:00:00 29.1 10 Sudoeste 22 Sudoeste 0 -- -- 30
2019-08-16 00:00:00 30.3 13 Sudoeste 24 Sudoeste 0 -- -- 28
2019-08-15 23:00:00 32 9 Sudoeste 26 Oeste 0 -- -- 26
2019-08-15 22:00:00 33.7 18 Oeste 25 Oeste 0 -- -- 23
2019-08-15 21:00:00 36.2 10 Oeste 13 Oeste 0 -- -- 19
2019-08-15 20:00:00 39.4 5 Sudoeste 20 Oeste 0 -- -- 12
2019-08-15 19:00:00 39.8 6 Sudoeste 17 Sudoeste 0 -- -- 11
2019-08-15 18:00:00 39.5 5 Sur 14 Sur 0 -- -- 11
2019-08-15 17:00:00 39.4 10 Sur 20 Oeste 0 -- -- 11
2019-08-15 16:00:00 38.4 9 Sudoeste 17 Sur 0 -- -- 12
2019-08-15 15:00:00 37.1 8 Sudoeste 21 Sudoeste 0 -- -- 18
2019-08-15 14:00:00 35.7 6 Sur 13 Sur 0 -- -- 21
2019-08-15 13:00:00 33.8 5 Sur 10 Oeste 0 -- -- 25
2019-08-15 12:00:00 31.3 4 Sudeste 10 Nordeste 0 -- -- 30
2019-08-15 11:00:00 28.5 6 Nordeste 11 Este 0 -- -- 31
2019-08-15 10:00:00 25 4 Nordeste 8 Nordeste 0 -- -- 43
2019-08-15 09:00:00 22.1 5 Este 11 Este 0 -- -- 48
2019-08-15 08:00:00 20.4 5 Este 8 Este 0 -- -- 54
2019-08-15 07:00:00 20.5 4 Este 5 Sudeste 0 -- -- 58
2019-08-15 06:00:00 20.7 0 Calma 5 Sur 0 -- -- 60
2019-08-15 05:00:00 22.1 3 Sudoeste 8 Sudoeste 0 -- -- 57
2019-08-15 04:00:00 23.1 5 Sudoeste 9 Sudoeste 0 -- -- 52
2019-08-15 03:00:00 24 5 Sudoeste 6 Sudoeste 0 -- -- 50
2019-08-15 02:00:00 25.1 5 Oeste 10 Oeste 0 -- -- 47
2019-08-15 01:00:00 26.6 6 Oeste 19 Sur 0 -- -- 42
2019-08-15 00:00:00 28.8 11 Sudoeste 19 Sudoeste 0 -- -- 27
2019-08-14 23:00:00 29.5 0 Calma 8 Oeste 0 -- -- 26
2019-08-14 22:00:00 32.1 3 Oeste 8 Sudoeste 0 -- -- 19
2019-08-14 21:00:00 35.4 5 Sudoeste 12 Sudoeste 0 -- -- 17
2019-08-14 20:00:00 37.4 6 Sudoeste 15 Sur 0 -- -- 13
2019-08-14 19:00:00 38.2 6 Sudoeste 15 Sur 0 -- -- 11
2019-08-14 18:00:00 37.7 6 Sur 20 Sudoeste 0 -- -- 12
2019-08-14 17:00:00 37.2 8 Sur 19 Sur 0 -- -- 13
2019-08-14 16:00:00 36.3 5 Oeste 17 Sudoeste 0 -- -- 17
2019-08-14 15:00:00 35.2 7 Sur 12 Oeste 0 -- -- 22
2019-08-14 14:00:00 33.4 5 Noroeste 14 Nordeste 0 -- -- 27
2019-08-14 13:00:00 31.7 5 Este 13 Sudeste 0 -- -- 28
2019-08-14 12:00:00 29.3 6 Norte 11 Nordeste 0 -- -- 37
2019-08-14 11:00:00 27.4 6 Nordeste 10 Norte 0 -- -- 31
2019-08-14 10:00:00 23.7 6 Nordeste 9 Nordeste 0 -- -- 34
2019-08-14 09:00:00 20.5 5 Nordeste 8 Nordeste 0 -- -- 42
2019-08-14 08:00:00 18.5 6 Este 8 Este 0 -- -- 46
2019-08-14 07:00:00 18.4 3 Este 7 Sudeste 0 -- -- 47
2019-08-14 06:00:00 19.5 5 Sudeste 6 Este 0 -- -- 46
2019-08-14 05:00:00 19.9 3 Sudeste 7 Sudoeste 0 -- -- 47
2019-08-14 04:00:00 22 5 Sudoeste 13 Sudoeste 0 -- -- 41
2019-08-14 03:00:00 22.5 4 Sur 5 Sudoeste 0 -- -- 39
2019-08-14 02:00:00 24.2 4 Oeste 21 Sudoeste 0 -- -- 34
2019-08-14 01:00:00 25.9 14 Sudoeste 25 Sur 0 -- -- 29
2019-08-14 00:00:00 26.8 13 Sur 19 Sudoeste 0 -- -- 22
2019-08-13 23:00:00 28.5 9 Oeste 21 Oeste 0 -- -- 18
2019-08-13 22:00:00 30.3 9 Oeste 16 Oeste 0 -- -- 17
2019-08-13 21:00:00 33.9 9 Oeste 12 Oeste 0 -- -- 15
2019-08-13 20:00:00 36.3 4 Sur 10 Oeste 0 -- -- 10
2019-08-13 19:00:00 36.4 7 Sudoeste 19 Sudoeste 0 -- -- 10
2019-08-13 18:00:00 36.3 10 Oeste 21 Oeste 0 -- -- 11
2019-08-13 17:00:00 35.7 8 Sudoeste 15 Sudoeste 0 -- -- 11
2019-08-13 16:00:00 35.2 5 Oeste 18 Sur 0 -- -- 10
2019-08-13 15:00:00 34.4 8 Noroeste 15 Oeste 0 -- -- 15
2019-08-13 14:00:00 33 5 Sudeste 13 Este 0 -- -- 18
2019-08-13 13:00:00 31.2 4 Este 15 Sudoeste 0 -- -- 19
2019-08-13 12:00:00 29.4 3 Oeste 12 Norte 0 -- -- 26
2019-08-13 11:00:00 26.9 8 Nordeste 12 Nordeste 0 -- -- 20
2019-08-13 10:00:00 24.5 6 Este 11 Nordeste 0 -- -- 24
2019-08-13 09:00:00 21.4 5 Este 13 Este 0 -- -- 28
2019-08-13 08:00:00 18.4 7 Este 11 Nordeste 0 -- -- 37
2019-08-13 07:00:00 18.1 5 Sudeste 8 Este 0 -- -- 40
2019-08-13 06:00:00 18.6 5 Nordeste 10 Sudeste 0 -- -- 39
2019-08-13 05:00:00 18.6 6 Sudeste 8 Sudeste 0 -- -- 41
2019-08-13 04:00:00 21 5 Sudeste 10 Sudeste 0 -- -- 34
2019-08-13 03:00:00 22.9 9 Sudeste 15 Sudeste 0 -- -- 28
2019-08-13 02:00:00 24.1 4 Sudeste 17 Nordeste 0 -- -- 22
2019-08-13 01:00:00 24.2 9 Este 12 Este 0 -- -- 21
2019-08-13 00:00:00 24.9 3 Oeste 5 Noroeste 0 -- -- 19
2019-08-12 23:00:00 26 2 Oeste 9 Oeste 0 -- -- 17
2019-08-12 22:00:00 28.4 6 Sudoeste 12 Sudoeste 0 -- -- 15
2019-08-12 21:00:00 30.6 8 Sudoeste 13 Sudoeste 0 -- -- 12
2019-08-12 20:00:00 33.3 6 Sudoeste 14 Sur 0 -- -- 9
2019-08-12 19:00:00 34.2 6 Sudoeste 17 Sur 0 -- -- 8
2019-08-12 18:00:00 34 9 Sudoeste 16 Sur 0 -- -- 8
2019-08-12 17:00:00 33.6 8 Sur 18 Sur 0 -- -- 9
2019-08-12 16:00:00 32.8 5 Nordeste 16 Este 0 -- -- 9
2019-08-12 15:00:00 32 5 Norte 18 Sudeste 0 -- -- 10
2019-08-12 14:00:00 30.8 8 Sudeste 18 Nordeste 0 -- -- 13
2019-08-12 13:00:00 29.7 9 Nordeste 21 Sudeste 0 -- -- 14
2019-08-12 12:00:00 27.7 4 Sur 13 Sudeste 0 -- -- 21
2019-08-12 11:00:00 25.1 4 Noroeste 14 Oeste 0 -- -- 29
2019-08-12 10:00:00 21.7 10 Noroeste 21 Noroeste 0 -- -- 37
2019-08-12 09:00:00 20.1 15 Noroeste 22 Norte 0 -- -- 41
2019-08-12 08:00:00 19.4 11 Noroeste 19 Norte 0 -- -- 41
2019-08-12 07:00:00 20.5 9 Norte 24 Norte 0 -- -- 37
2019-08-12 06:00:00 21.2 10 Norte 21 Norte 0 -- -- 34
2019-08-12 05:00:00 22 14 Norte 22 Norte 0 -- -- 31
2019-08-12 04:00:00 22.6 11 Norte 19 Norte 0 -- -- 28
2019-08-12 03:00:00 23.9 9 Norte 30 Norte 0 -- -- 25
2019-08-12 02:00:00 24.9 6 Noroeste 23 Noroeste 0 -- -- 22
2019-08-12 01:00:00 25.3 10 Noroeste 29 Noroeste 0 -- -- 20
2019-08-12 00:00:00 25.4 12 Noroeste 22 Noroeste 0 -- -- 20
2019-08-11 23:00:00 26.3 8 Oeste 20 Oeste 0 -- -- 18
2019-08-11 22:00:00 27.7 11 Noroeste 23 Noroeste 0 -- -- 17
2019-08-11 21:00:00 30.1 14 Noroeste 34 Norte 0 -- -- 12
2019-08-11 20:00:00 31.9 20 Noroeste 33 Noroeste 0 -- -- 10
2019-08-11 19:00:00 32.9 19 Noroeste 32 Norte 0 -- -- 10
2019-08-11 18:00:00 33.9 8 Noroeste 21 Oeste 0 -- -- 12
2019-08-11 17:00:00 34.4 7 Oeste 23 Oeste 0 -- -- 13
2019-08-11 16:00:00 32 9 Sur 25 Oeste 0 -- -- 18
2019-08-11 15:00:00 30.8 13 Sudoeste 28 Sur 0 -- -- 21
2019-08-11 14:00:00 30.8 15 Sudoeste 25 Sur 0 -- -- 22
2019-08-11 13:00:00 28.9 13 Oeste 21 Oeste 0 -- -- 23
2019-08-11 12:00:00 26.1 4 Sudoeste 14 Sur 0 -- -- 28
2019-08-11 11:00:00 23 7 Noroeste 15 Noroeste 0 -- -- 36
2019-08-11 10:00:00 21.8 7 Noroeste 26 Noroeste 0 -- -- 40
2019-08-11 09:00:00 21.7 15 Noroeste 23 Noroeste 0 -- -- 39
2019-08-11 08:00:00 19.8 7 Noroeste 13 Noroeste 0 -- -- 50
2019-08-11 07:00:00 20.1 6 Oeste 9 Oeste 0 -- -- 50
2019-08-11 06:00:00 21.1 6 Oeste 20 Noroeste 0 -- -- 46
2019-08-11 05:00:00 20.7 6 Noroeste 13 Noroeste 0 -- -- 51
2019-08-11 04:00:00 20.6 4 Oeste 6 Oeste 0 -- -- 54
2019-08-11 03:00:00 21.6 3 Sur 12 Oeste 0 -- -- 50
2019-08-11 02:00:00 22.9 6 Oeste 19 Sudoeste 0 -- -- 46
2019-08-11 01:00:00 24.4 8 Sudoeste 24 Sudoeste 0 -- -- 41
2019-08-11 00:00:00 26.6 12 Sudoeste 22 Sudoeste 0 -- -- 35
2019-08-10 23:00:00 29.2 10 Sudoeste 24 Oeste 0 -- -- 30
2019-08-10 22:00:00 30.9 9 Sudoeste 20 Sudoeste 0 -- -- 33
2019-08-10 21:00:00 33.3 12 Oeste 24 Oeste 0 -- -- 27
2019-08-10 20:00:00 34.9 13 Oeste 31 Oeste 0 -- -- 25
2019-08-10 19:00:00 35.5 13 Oeste 31 Oeste 0 -- -- 28
2019-08-10 18:00:00 35.9 12 Oeste 27 Oeste 0 -- -- 26
2019-08-10 17:00:00 35.5 11 Oeste 31 Oeste 0 -- -- 27
2019-08-10 16:00:00 34.5 16 Oeste 28 Oeste 0 -- -- 29
2019-08-10 15:00:00 33.6 7 Sudoeste 21 Oeste 0 -- -- 31
2019-08-10 14:00:00 32.2 8 Sudoeste 16 Noroeste 0 -- -- 34
2019-08-10 13:00:00 30.8 5 Sudeste 13 Sudoeste 0 -- -- 38
2019-08-10 12:00:00 29.6 5 Sur 12 Sur 0 -- -- 42
2019-08-10 11:00:00 28.1 4 Sudeste 10 Nordeste 0 -- -- 44
2019-08-10 10:00:00 25.6 5 Norte 13 Noroeste 0 -- -- 49
2019-08-10 09:00:00 23.7 6 Noroeste 14 Noroeste 0 -- -- 53
2019-08-10 08:00:00 21.7 3 Noroeste 7 Sudoeste 0 -- -- 72
2019-08-10 07:00:00 21.3 5 Sudoeste 10 Oeste 0 -- -- 86
2019-08-10 06:00:00 21.8 5 Oeste 11 Sudoeste 0 -- -- 83
2019-08-10 05:00:00 22.4 7 Oeste 15 Sudoeste 0 -- -- 78
2019-08-10 04:00:00 22.9 6 Oeste 12 Oeste 0 -- -- 76
2019-08-10 03:00:00 23.5 6 Oeste 17 Oeste 0 -- -- 74
2019-08-10 02:00:00 24.3 7 Oeste 18 Sudoeste 0 -- -- 70
2019-08-10 01:00:00 25.2 11 Oeste 22 Sudoeste 0 -- -- 66
2019-08-10 00:00:00 26.4 9 Sudoeste 22 Sudoeste 0 -- -- 61
2019-08-09 23:00:00 27.8 11 Sudoeste 22 Sudoeste 0 -- -- 53
2019-08-09 22:00:00 29.3 12 Sudoeste 26 Oeste 0 -- -- 48
2019-08-09 21:00:00 31.9 15 Sudoeste 33 Sudoeste 0 -- -- 38
2019-08-09 20:00:00 35.3 18 Oeste 29 Oeste 0 -- -- 27
2019-08-09 19:00:00 35.8 15 Oeste 30 Sudoeste 0 -- -- 26
2019-08-09 18:00:00 36.1 17 Sudoeste 32 Sudoeste 0 -- -- 21
2019-08-09 17:00:00 35.6 18 Oeste 34 Oeste 0 -- -- 20
2019-08-09 16:00:00 34.8 15 Oeste 32 Oeste 0 -- -- 28
2019-08-09 15:00:00 33.4 13 Sudoeste 27 Oeste 0 -- -- 30
2019-08-09 14:00:00 32.4 9 Oeste 22 Sudoeste 0 -- -- 37
2019-08-09 13:00:00 30.5 9 Sudoeste 19 Sudoeste 0 -- -- 43
2019-08-09 12:00:00 28.5 4 Sudoeste 11 Oeste 0 -- -- 49
2019-08-09 11:00:00 26.1 4 Oeste 11 Sur 0 -- -- 59
2019-08-09 10:00:00 24 3 Oeste 9 Sudoeste 0 -- -- 65
2019-08-09 09:00:00 22.5 3 Este 6 Sudeste 0 -- -- 69
2019-08-09 08:00:00 20.1 0 Calma 4 Este 0 -- -- 72
2019-08-09 07:00:00 19.8 0 Calma 3 Este 0 -- -- 73
2019-08-09 06:00:00 20.3 2 Sur 4 Sudeste 0 -- -- 72
2019-08-09 05:00:00 21 0 Calma 2 Sudeste 0 -- -- 67
2019-08-09 04:00:00 21.6 0 Calma 11 Oeste 0 -- -- 64
2019-08-09 03:00:00 22.6 7 Sudoeste 20 Sudoeste 0 -- -- 58
2019-08-09 02:00:00 23.4 10 Sudoeste 19 Sudoeste 0 -- -- 52
2019-08-09 01:00:00 24.8 8 Sudoeste 22 Oeste 0 -- -- 43
2019-08-09 00:00:00 27.1 10 Sudoeste 23 Oeste 0 -- -- 33
2019-08-08 23:00:00 29.4 13 Oeste 24 Sudoeste 0 -- -- 31
2019-08-08 22:00:00 31.6 14 Sudoeste 25 Sudoeste 0 -- -- 27
2019-08-08 21:00:00 34.7 8 Sudoeste 19 Sudoeste 0 -- -- 21
2019-08-08 20:00:00 36.6 12 Oeste 28 Oeste 0 -- -- 15
2019-08-08 19:00:00 37.2 17 Oeste 31 Oeste 0 -- -- 13
2019-08-08 18:00:00 37.4 17 Oeste 27 Oeste 0 -- -- 16
2019-08-08 17:00:00 37.5 12 Oeste 27 Oeste 0 -- -- 17
2019-08-08 16:00:00 36.9 12 Oeste 31 Sur 0 -- -- 15
2019-08-08 15:00:00 35.7 8 Oeste 17 Oeste 0 -- -- 19
2019-08-08 14:00:00 34.2 7 Noroeste 15 Sudoeste 0 -- -- 23
2019-08-08 13:00:00 32.7 7 Este 13 Sudeste 0 -- -- 26
2019-08-08 12:00:00 30.5 6 Este 13 Este 0 -- -- 31
2019-08-08 11:00:00 27.8 3 Nordeste 10 Norte 0 -- -- 40
2019-08-08 10:00:00 25.1 4 Oeste 8 Oeste 0 -- -- 48
2019-08-08 09:00:00 23.1 2 Norte 4 Norte 0 -- -- 58
2019-08-08 08:00:00 20.6 2 Sur 9 Sur 0 -- -- 66
2019-08-08 07:00:00 20.6 2 Sudeste 6 Sudoeste 0 -- -- 66
2019-08-08 06:00:00 21.4 3 Sudoeste 6 Oeste 0 -- -- 64
2019-08-08 05:00:00 22.6 3 Oeste 12 Sudoeste 0 -- -- 59
2019-08-08 04:00:00 23.3 4 Sudoeste 10 Sudoeste 0 -- -- 56
2019-08-08 03:00:00 24.2 4 Oeste 13 Sudoeste 0 -- -- 54
2019-08-08 02:00:00 25.9 9 Sudoeste 16 Sudoeste 0 -- -- 46
2019-08-08 01:00:00 27.1 2 Oeste 10 Sudoeste 0 -- -- 35
2019-08-08 00:00:00 29.1 6 Noroeste 21 Nordeste 0 -- -- 31
2019-08-07 23:00:00 30.2 10 Norte 19 Noroeste 0 -- -- 29
2019-08-07 22:00:00 30.4 7 Noroeste 20 Oeste 0 -- -- 29
2019-08-07 21:00:00 31.2 8 Sudoeste 18 Oeste 0 -- -- 33
2019-08-07 20:00:00 32.9 5 Sudoeste 12 Oeste 0 -- -- 31
2019-08-07 19:00:00 33.2 6 Sudoeste 21 Oeste 0 -- -- 28
2019-08-07 18:00:00 34.6 13 Oeste 21 Sudoeste 0 -- -- 25
2019-08-07 17:00:00 33.5 14 Oeste 24 Oeste 0 -- -- 27
2019-08-07 16:00:00 34.1 15 Oeste 24 Oeste 0 -- -- 26
2019-08-07 15:00:00 33.5 10 Sudoeste 20 Oeste 0 -- -- 26
2019-08-07 14:00:00 32 10 Sudoeste 19 Sudoeste 0 -- -- 29
2019-08-07 13:00:00 30.4 5 Sudeste 12 Sudeste 0 -- -- 35
2019-08-07 12:00:00 28.5 4 Oeste 11 Sudoeste 0 -- -- 39
2019-08-07 11:00:00 26.1 4 Sur 8 Sudeste 0 -- -- 45
2019-08-07 10:00:00 24.6 2 Noroeste 8 Sudeste 0 -- -- 46
2019-08-07 09:00:00 21.7 3 Este 5 Nordeste 0 -- -- 51
2019-08-07 08:00:00 19.5 0 Calma 4 Noroeste 0 -- -- 57
2019-08-07 07:00:00 19.9 2 Sudoeste 4 Sudeste 0 -- -- 56
2019-08-07 06:00:00 20.5 3 Sudoeste 9 Sur 0 -- -- 53
2019-08-07 05:00:00 21.3 2 Oeste 5 Oeste 0 -- -- 49
2019-08-07 04:00:00 22.1 0 Calma 13 Sudoeste 0 -- -- 46
2019-08-07 03:00:00 23.2 7 Sudoeste 19 Sudoeste 0 -- -- 44
2019-08-07 02:00:00 24.2 10 Sudoeste 18 Sudoeste 0 -- -- 40
2019-08-07 01:00:00 25.3 5 Sur 13 Sudoeste 0 -- -- 34
2019-08-07 00:00:00 27.2 4 Oeste 15 Sudoeste 0 -- -- 22
2019-08-06 23:00:00 29.8 10 Sudoeste 20 Sudoeste 0 -- -- 18
2019-08-06 22:00:00 31.3 9 Oeste 20 Oeste 0 -- -- 23
2019-08-06 21:00:00 34 10 Sudoeste 18 Sudoeste 0 -- -- 16
2019-08-06 20:00:00 36.3 13 Oeste 24 Oeste 0 -- -- 10
2019-08-06 19:00:00 37.1 17 Oeste 30 Oeste 0 -- -- 6
2019-08-06 18:00:00 37.5 12 Oeste 24 Oeste 0 -- -- 12
2019-08-06 17:00:00 37.1 14 Oeste 27 Oeste 0 -- -- 12
2019-08-06 16:00:00 36.7 9 Oeste 24 Oeste 0 -- -- 14
2019-08-06 15:00:00 35.9 9 Oeste 24 Oeste 0 -- -- 17
2019-08-06 14:00:00 34.1 8 Oeste 18 Sudoeste 0 -- -- 22
2019-08-06 13:00:00 32 7 Sur 17 Sudoeste 0 -- -- 26
2019-08-06 12:00:00 29.5 4 Sur 12 Nordeste 0 -- -- 30
2019-08-06 11:00:00 26.3 4 Sur 11 Este 0 -- -- 40
2019-08-06 10:00:00 23.2 5 Norte 10 Norte 0 -- -- 48
2019-08-06 09:00:00 20.6 4 Este 9 Nordeste 0 -- -- 51
2019-08-06 08:00:00 18 0 Calma 5 Sudeste 0 -- -- 57
2019-08-06 07:00:00 18.2 0 Calma 6 Sudeste 0 -- -- 57
2019-08-06 06:00:00 19.2 5 Sudeste 7 Sudeste 0 -- -- 53
2019-08-06 05:00:00 20.8 5 Oeste 17 Oeste 0 -- -- 46
2019-08-06 04:00:00 21.1 9 Sudoeste 14 Sudoeste 0 -- -- 42
2019-08-06 03:00:00 21.9 3 Sudoeste 9 Oeste 0 -- -- 40
2019-08-06 02:00:00 23.6 8 Oeste 15 Sudoeste 0 -- -- 37
2019-08-06 01:00:00 25.4 8 Sudoeste 22 Sudoeste 0 -- -- 34
2019-08-06 00:00:00 27.3 12 Sudoeste 25 Sudoeste 0 -- -- 30
2019-08-05 23:00:00 29.5 12 Sudoeste 28 Sudoeste 0 -- -- 25
2019-08-05 22:00:00 31.7 12 Sudoeste 28 Sudoeste 0 -- -- 23
2019-08-05 21:00:00 35.3 12 Oeste 23 Oeste 0 -- -- 16
2019-08-05 20:00:00 37.6 15 Oeste 26 Oeste 0 -- -- 8
2019-08-05 19:00:00 38.3 18 Oeste 32 Oeste 0 -- -- 7
2019-08-05 18:00:00 38.5 17 Oeste 32 Oeste 0 -- -- 10
2019-08-05 17:00:00 38 17 Oeste 32 Oeste 0 -- -- 13
2019-08-05 16:00:00 37.7 11 Oeste 23 Sudoeste 0 -- -- 17
2019-08-05 15:00:00 36.4 10 Sudoeste 18 Sudoeste 0 -- -- 19
2019-08-05 14:00:00 34.8 7 Sudoeste 15 Sur 0 -- -- 22
2019-08-05 13:00:00 33.1 6 Oeste 15 Sudoeste 0 -- -- 27
2019-08-05 12:00:00 31.2 5 Nordeste 12 Nordeste 0 -- -- 31
2019-08-05 11:00:00 28.9 5 Este 11 Norte 0 -- -- 37
2019-08-05 10:00:00 26.1 4 Este 8 Este 0 -- -- 43
2019-08-05 09:00:00 22.5 5 Este 10 Este 0 -- -- 51
2019-08-05 08:00:00 19.7 4 Este 5 Este 0 -- -- 58
2019-08-05 07:00:00 19.5 3 Este 5 Sudeste 0 -- -- 59
2019-08-05 06:00:00 20.1 4 Sudeste 8 Sudeste 0 -- -- 58
2019-08-05 05:00:00 20.9 4 Sur 8 Sur 0 -- -- 58
2019-08-05 04:00:00 21.9 2 Sudeste 5 Sudoeste 0 -- -- 55
2019-08-05 03:00:00 23.3 3 Sudoeste 6 Oeste 0 -- -- 50
2019-08-05 02:00:00 24.3 3 Oeste 10 Sudoeste 0 -- -- 46
2019-08-05 01:00:00 25.9 9 Sudoeste 21 Sudoeste 0 -- -- 42
2019-08-05 00:00:00 27.3 11 Sudoeste 19 Sudoeste 0 -- -- 38
2019-08-04 23:00:00 29.3 8 Sudoeste 19 Sudoeste 0 -- -- 33
2019-08-04 22:00:00 31.6 18 Oeste 31 Oeste 0 -- -- 30
2019-08-04 21:00:00 34.7 12 Oeste 22 Sudoeste 0 -- -- 16
2019-08-04 20:00:00 37.4 12 Sudoeste 25 Oeste 0 -- -- 8
2019-08-04 19:00:00 37.8 12 Oeste 25 Oeste 0 -- -- 11
2019-08-04 18:00:00 37.6 12 Oeste 23 Oeste 0 -- -- 11
2019-08-04 17:00:00 36.6 12 Oeste 25 Noroeste 0 -- -- 17
2019-08-04 16:00:00 36.3 11 Sudoeste 19 Sudoeste 0 -- -- 22
2019-08-04 15:00:00 34.4 9 Noroeste 18 Noroeste 0 -- -- 26
2019-08-04 14:00:00 32.5 6 Sudoeste 17 Sudoeste 0 -- -- 32
2019-08-04 13:00:00 30.1 7 Sudoeste 15 Sudoeste 0 -- -- 36
2019-08-04 12:00:00 27.9 6 Sudoeste 15 Sudoeste 0 -- -- 43
2019-08-04 11:00:00 25.3 8 Sudoeste 15 Sur 0 -- -- 54
2019-08-04 10:00:00 23.5 9 Oeste 15 Oeste 0 -- -- 58
2019-08-04 09:00:00 21.8 3 Noroeste 6 Oeste 0 -- -- 57
2019-08-04 08:00:00 19.6 0 Calma 4 Sur 0 -- -- 61
2019-08-04 07:00:00 19.7 0 Calma 3 Oeste 0 -- -- 59
2019-08-04 06:00:00 20 0 Calma 5 Noroeste 0 -- -- 57
2019-08-04 05:00:00 20.9 2 Noroeste 10 Sudoeste 0 -- -- 53
2019-08-04 04:00:00 21.7 4 Sur 12 Sudoeste 0 -- -- 51
2019-08-04 03:00:00 22.8 7 Sudoeste 17 Sudoeste 0 -- -- 48
2019-08-04 02:00:00 23.9 6 Sudoeste 13 Sudoeste 0 -- -- 46
2019-08-04 01:00:00 24.7 9 Sudoeste 14 Sudoeste 0 -- -- 41
2019-08-04 00:00:00 26.7 7 Sudoeste 19 Oeste 0 -- -- 34
2019-08-03 23:00:00 28.6 13 Sudoeste 24 Sudoeste 0 -- -- 29
2019-08-03 22:00:00 30.5 8 Sudoeste 17 Oeste 0 -- -- 22
2019-08-03 21:00:00 33.6 10 Oeste 28 Oeste 0 -- -- 16
2019-08-03 20:00:00 35 19 Oeste 30 Oeste 0 -- -- 16
2019-08-03 19:00:00 35.8 18 Oeste 34 Oeste 0 -- -- 19
2019-08-03 18:00:00 36.3 17 Oeste 30 Oeste 0 -- -- 20
2019-08-03 17:00:00 35.7 18 Oeste 32 Oeste 0 -- -- 21
2019-08-03 16:00:00 35.1 18 Oeste 33 Oeste 0 -- -- 25
2019-08-03 15:00:00 34.4 14 Oeste 28 Oeste 0 -- -- 23
2019-08-03 14:00:00 33.6 9 Noroeste 23 Oeste 0 -- -- 23
2019-08-03 13:00:00 31.4 7 Sudoeste 17 Oeste 0 -- -- 26
2019-08-03 12:00:00 29.2 5 Oeste 14 Oeste 0 -- -- 32
2019-08-03 11:00:00 27 5 Oeste 10 Sudoeste 0 -- -- 34
2019-08-03 10:00:00 24.5 4 Este 9 Nordeste 0 -- -- 37
2019-08-03 09:00:00 21.5 5 Nordeste 8 Nordeste 0 -- -- 45
2019-08-03 08:00:00 18.7 3 Sudeste 5 Sudeste 0 -- -- 53
2019-08-03 07:00:00 18.1 4 Norte 5 Noroeste 0 -- -- 53
2019-08-03 06:00:00 19.9 4 Sudeste 6 Sur 0 -- -- 46
2019-08-03 05:00:00 20.6 2 Sudeste 6 Este 0 -- -- 42
2019-08-03 04:00:00 21 2 Nordeste 4 Sur 0 -- -- 42
2019-08-03 03:00:00 22.3 5 Sur 8 Sudoeste 0 -- -- 40
2019-08-03 02:00:00 24.2 3 Sur 14 Sudoeste 0 -- -- 34
2019-08-03 01:00:00 25.4 9 Sudoeste 14 Sudoeste 0 -- -- 31
2019-08-03 00:00:00 27.5 8 Oeste 20 Sudoeste 0 -- -- 24
2019-08-02 23:00:00 29.1 5 Sudoeste 18 Sudoeste 0 -- -- 20
2019-08-02 22:00:00 31.1 9 Sudoeste 24 Oeste 0 -- -- 19
2019-08-02 21:00:00 34.4 15 Oeste 27 Oeste 0 -- -- 17
2019-08-02 20:00:00 36.5 17 Oeste 33 Oeste 0 -- -- 11
2019-08-02 19:00:00 37.6 15 Oeste 31 Oeste 0 -- -- 12
2019-08-02 18:00:00 38.2 14 Oeste 27 Oeste 0 -- -- 12
2019-08-02 17:00:00 38.1 12 Oeste 21 Oeste 0 -- -- 10
2019-08-02 16:00:00 37.7 7 Oeste 25 Oeste 0 -- -- 12
2019-08-02 15:00:00 36.3 14 Oeste 26 Oeste 0 -- -- 14
2019-08-02 14:00:00 35.5 9 Noroeste 19 Noroeste 0 -- -- 15
2019-08-02 13:00:00 33.6 6 Oeste 14 Sur 0 -- -- 18
2019-08-02 12:00:00 31.6 4 Este 11 Sur 0 -- -- 21
2019-08-02 11:00:00 28.9 3 Norte 9 Nordeste 0 -- -- 26
2019-08-02 10:00:00 25.8 3 Norte 6 Norte 0 -- -- 33
2019-08-02 09:00:00 22.1 3 Nordeste 5 Este 0 -- -- 50
2019-08-02 08:00:00 19.1 0 Calma 5 Este 0 -- -- 57
2019-08-02 07:00:00 19 0 Calma 6 Sur 0 -- -- 53
2019-08-02 06:00:00 20 4 Sudeste 5 Sudeste 0 -- -- 50
2019-08-02 05:00:00 20.6 0 Calma 6 Sudeste 0 -- -- 48
2019-08-02 04:00:00 21.6 2 Sudeste 8 Oeste 0 -- -- 45
2019-08-02 03:00:00 22.9 5 Oeste 14 Sudoeste 0 -- -- 41
2019-08-02 02:00:00 24.4 10 Sudoeste 24 Sudoeste 0 -- -- 37
2019-08-02 01:00:00 26 10 Sudoeste 19 Sudoeste 0 -- -- 38
2019-08-02 00:00:00 27.6 8 Sudoeste 17 Oeste 0 -- -- 41
2019-08-01 23:00:00 30.1 11 Sudoeste 29 Sudoeste 0 -- -- 37
2019-08-01 22:00:00 31.8 15 Sudoeste 28 Sudoeste 0 -- -- 35
2019-08-01 21:00:00 34.8 9 Oeste 21 Oeste 0 -- -- 21
2019-08-01 20:00:00 36.7 12 Oeste 25 Oeste 0 -- -- 17
2019-08-01 19:00:00 37.1 11 Oeste 23 Oeste 0 -- -- 17
2019-08-01 18:00:00 37.2 11 Oeste 24 Sudoeste 0 -- -- 18
2019-08-01 17:00:00 36.2 9 Sudoeste 21 Sudoeste 0 -- -- 21
2019-08-01 16:00:00 35.1 11 Sudoeste 21 Sudoeste 0 -- -- 24
2019-08-01 15:00:00 34.1 10 Sudoeste 19 Sur 0 -- -- 22
2019-08-01 14:00:00 32.4 10 Sudoeste 21 Oeste 0 -- -- 27
2019-08-01 13:00:00 30.8 8 Oeste 19 Oeste 0 -- -- 39
2019-08-01 12:00:00 29.5 8 Oeste 19 Oeste 0 -- -- 44
2019-08-01 11:00:00 27.6 7 Oeste 14 Sudoeste 0 -- -- 50
2019-08-01 10:00:00 26.1 6 Noroeste 13 Noroeste 0 -- -- 59
2019-08-01 09:00:00 23.9 4 Noroeste 8 Sur 0 -- -- 66
2019-08-01 08:00:00 22.6 7 Sur 10 Sur 0 -- -- 70
2019-08-01 07:00:00 22.7 5 Sur 9 Sur 0 -- -- 69
2019-08-01 06:00:00 23.7 3 Sudoeste 9 Sur 0 -- -- 65
2019-08-01 05:00:00 24.6 6 Sudoeste 13 Sudoeste 0 -- -- 61
2019-08-01 04:00:00 25.3 7 Sudoeste 24 Sudoeste 0 -- -- 58
2019-08-01 03:00:00 26.1 12 Sudoeste 26 Sudoeste 0 -- -- 55
2019-08-01 02:00:00 26.7 13 Sudoeste 25 Oeste 0 -- -- 52
2019-08-01 01:00:00 26.9 8 Sudoeste 19 Sudoeste 0 -- -- 49
2019-08-01 00:00:00 27.6 12 Sur 32 Sur 0 -- -- 47
2019-07-31 23:00:00 28.6 19 Sur 34 Sur 0 -- -- 45
2019-07-31 22:00:00 31.1 17 Sur 28 Sur 0 -- -- 36
2019-07-31 21:00:00 34.4 8 Oeste 18 Oeste 0 -- -- 20
2019-07-31 20:00:00 36 13 Oeste 24 Oeste 0 -- -- 18
2019-07-31 19:00:00 36.7 16 Oeste 27 Oeste 0 -- -- 17
2019-07-31 18:00:00 37.3 12 Sudoeste 30 Sudeste 0 -- -- 18
2019-07-31 17:00:00 36.9 17 Sur 37 Sur 0 -- -- 18
2019-07-31 16:00:00 36.4 14 Sur 26 Sur 0 -- -- 19
2019-07-31 15:00:00 35.2 5 Oeste 18 Sur 0 -- -- 23
2019-07-31 14:00:00 34.2 6 Sur 20 Sur 0 -- -- 23
2019-07-31 13:00:00 33.3 6 Sudeste 19 Sur 0 -- -- 24
2019-07-31 12:00:00 31.3 8 Sur 19 Sudeste 0 -- -- 31
2019-07-31 11:00:00 29.4 8 Sudeste 20 Sudeste 0 -- -- 35
2019-07-31 10:00:00 26.3 8 Nordeste 13 Nordeste 0 -- -- 23
2019-07-31 09:00:00 23.8 5 Este 13 Nordeste 0 -- -- 27
2019-07-31 08:00:00 21.5 3 Este 6 Nordeste 0 -- -- 26
2019-07-31 07:00:00 21.1 3 Este 6 Sudeste 0 -- -- 26
2019-07-31 06:00:00 20.6 4 Este 9 Nordeste 0 -- -- 28
2019-07-31 05:00:00 21 3 Este 9 Sur 0 -- -- 28
2019-07-31 04:00:00 22.9 4 Sur 8 Este 0 -- -- 25
2019-07-31 03:00:00 23.2 5 Este 12 Sur 0 -- -- 22
2019-07-31 02:00:00 26.1 4 Noroeste 6 Noroeste 0 -- -- 15
2019-07-31 01:00:00 26.8 3 Nordeste 8 Norte 0 -- -- 13
2019-07-31 00:00:00 28.6 0 Calma 18 Norte 0 -- -- 11
2019-07-30 23:00:00 30.1 7 Norte 13 Norte 0 -- -- 12
2019-07-30 22:00:00 31 7 Noroeste 15 Oeste 0 -- -- 17
2019-07-30 21:00:00 34.8 9 Oeste 15 Oeste 0 -- -- 14
2019-07-30 20:00:00 37.3 6 Oeste 20 Oeste 0 -- -- 9
2019-07-30 19:00:00 37.4 11 Oeste 20 Oeste 0 -- -- 9
2019-07-30 18:00:00 37.2 8 Sudoeste 20 Sudoeste 0 -- -- 10
2019-07-30 17:00:00 36.3 4 Sudoeste 17 Noroeste 0 -- -- 12
2019-07-30 16:00:00 35.7 11 Oeste 19 Oeste 0 -- -- 14
2019-07-30 15:00:00 34.7 8 Sudoeste 17 Sudoeste 0 -- -- 16
2019-07-30 14:00:00 33.7 7 Oeste 18 Noroeste 0 -- -- 17
2019-07-30 13:00:00 32 5 Noroeste 13 Oeste 0 -- -- 19
2019-07-30 12:00:00 29.5 5 Norte 15 Noroeste 0 -- -- 23
2019-07-30 11:00:00 26.7 8 Noroeste 17 Norte 0 -- -- 27
2019-07-30 10:00:00 23.7 12 Noroeste 20 Noroeste 0 -- -- 33
2019-07-30 09:00:00 21.8 8 Norte 19 Noroeste 0 -- -- 37
2019-07-30 08:00:00 20.7 12 Noroeste 25 Noroeste 0 -- -- 38
2019-07-30 07:00:00 20.8 12 Norte 19 Norte 0 -- -- 38
2019-07-30 06:00:00 21.7 9 Norte 21 Norte 0 -- -- 36
2019-07-30 05:00:00 22.6 10 Norte 22 Norte 0 -- -- 33
2019-07-30 04:00:00 24.2 10 Norte 25 Noroeste 0 -- -- 29
2019-07-30 03:00:00 25.4 10 Norte 20 Noroeste 0 -- -- 26
2019-07-30 02:00:00 27 7 Noroeste 33 Norte 0 -- -- 23
2019-07-30 01:00:00 28.4 19 Norte 34 Noroeste 0 -- -- 21
2019-07-30 00:00:00 29.2 10 Norte 31 Oeste 0 -- -- 19
2019-07-29 23:00:00 29.5 9 Oeste 27 Oeste 0 -- -- 27
2019-07-29 22:00:00 30.6 14 Oeste 25 Oeste 0 -- -- 30
2019-07-29 21:00:00 33.5 15 Oeste 28 Oeste 0 -- -- 20
2019-07-29 20:00:00 35.5 14 Oeste 30 Oeste 0 -- -- 17
2019-07-29 19:00:00 36 13 Sudoeste 43 Sudoeste 0 -- -- 15
2019-07-29 18:00:00 36 14 Sudoeste 28 Oeste 0 -- -- 16
2019-07-29 17:00:00 35.4 13 Oeste 26 Oeste 0 -- -- 17
2019-07-29 16:00:00 34.4 11 Sudoeste 25 Oeste 0 -- -- 21
2019-07-29 15:00:00 33.1 10 Sudoeste 35 Oeste 0 -- -- 24
2019-07-29 14:00:00 31.5 8 Sudoeste 19 Sudoeste 0 -- -- 23
2019-07-29 13:00:00 29.5 5 Sudoeste 12 Noroeste 0 -- -- 23
2019-07-29 12:00:00 27.2 5 Noroeste 13 Oeste 0 -- -- 38
2019-07-29 11:00:00 24.9 6 Oeste 14 Noroeste 0 -- -- 54
2019-07-29 10:00:00 22.5 8 Oeste 14 Oeste 0 -- -- 64
2019-07-29 09:00:00 21 5 Oeste 9 Oeste 0 -- -- 67
2019-07-29 08:00:00 19.3 0 Calma 4 Sudoeste 0 -- -- 72
2019-07-29 07:00:00 19.1 3 Sudoeste 6 Sudoeste 0 -- -- 72
2019-07-29 06:00:00 19.7 2 Sudoeste 10 Sudoeste 0 -- -- 69
2019-07-29 05:00:00 20.1 5 Sudoeste 11 Sudoeste 0 -- -- 68
2019-07-29 04:00:00 20.9 5 Sudoeste 11 Sudoeste 0 -- -- 64
2019-07-29 03:00:00 21.8 4 Sudoeste 19 Sudoeste 0 -- -- 58
2019-07-29 02:00:00 22.3 9 Sudoeste 18 Noroeste 0 -- -- 57
2019-07-29 01:00:00 23.4 10 Oeste 24 Oeste 0 -- -- 54
2019-07-29 00:00:00 24.7 13 Sudoeste 26 Sudoeste 0 -- -- 51
2019-07-28 23:00:00 26.6 17 Oeste 31 Sudoeste 0 -- -- 46
2019-07-28 22:00:00 28.4 20 Oeste 38 Oeste 0 -- -- 42
2019-07-28 21:00:00 31.7 13 Oeste 22 Oeste 0 -- -- 29
2019-07-28 20:00:00 33 10 Oeste 22 Oeste 0 -- -- 27
2019-07-28 19:00:00 33.6 8 Sudoeste 20 Oeste 0 -- -- 25
2019-07-28 18:00:00 33 8 Sur 18 Sur 0 -- -- 26
2019-07-28 17:00:00 32.8 6 Oeste 15 Sudoeste 0 -- -- 27
2019-07-28 16:00:00 31.8 9 Oeste 19 Sudoeste 0 -- -- 30
2019-07-28 15:00:00 30.9 8 Sudoeste 18 Sudoeste 0 -- -- 35
2019-07-28 14:00:00 29.3 6 Nordeste 23 Sudeste 0 -- -- 40
2019-07-28 13:00:00 27.8 6 Este 17 Este 0 -- -- 46
2019-07-28 12:00:00 26.3 6 Este 17 Este 0 -- -- 50
2019-07-28 11:00:00 24.2 5 Sur 10 Este 0 -- -- 59
2019-07-28 10:00:00 22.2 8 Sudeste 12 Sur 0 -- -- 69
2019-07-28 09:00:00 21.2 3 Noroeste 8 Oeste 0 -- -- 73
2019-07-28 08:00:00 20.3 3 Oeste 8 Oeste 0 -- -- 77
2019-07-28 07:00:00 20.4 5 Oeste 14 Sudoeste 0 -- -- 76
2019-07-28 06:00:00 20.6 4 Oeste 13 Oeste 0 -- -- 76
2019-07-28 05:00:00 20.7 7 Oeste 15 Oeste 0 -- -- 75
2019-07-28 04:00:00 20.9 9 Oeste 16 Sudoeste 0 -- -- 74
2019-07-28 03:00:00 20.9 8 Oeste 23 Oeste 0 -- -- 74
2019-07-28 02:00:00 21 9 Sudoeste 24 Oeste 0 -- -- 74
2019-07-28 01:00:00 21.8 14 Oeste 22 Oeste 0 -- -- 72
2019-07-28 00:00:00 22.3 10 Sudoeste 26 Sudoeste 0 -- -- 72
2019-07-27 23:00:00 23.5 10 Sudoeste 30 Sudoeste 0 -- -- 66
2019-07-26 12:00:00 -- -- -- -- -- -- -- -- --
2019-07-26 11:00:00 24.8 9 Sudoeste 20 Oeste 0 -- -- 65
2019-07-26 10:00:00 23.2 13 Oeste 24 Oeste 0 -- -- 73
2019-07-26 09:00:00 22 12 Oeste 21 Oeste 0 -- -- 76
2019-07-26 08:00:00 21.3 7 Oeste 15 Oeste 0 -- -- 76
2019-07-26 07:00:00 21.1 8 Sudoeste 17 Sudoeste 0 -- -- 75
2019-07-26 06:00:00 21.4 5 Oeste 11 Oeste 0 -- -- 71
2019-07-26 05:00:00 21.9 5 Oeste 16 Oeste 0 -- -- 68
2019-07-26 04:00:00 22.5 9 Oeste 22 Oeste 0 -- -- 65
2019-07-26 03:00:00 23.1 9 Oeste 17 Oeste 0 -- -- 61
2019-07-26 02:00:00 23.8 7 Oeste 20 Oeste 0 -- -- 58
2019-07-26 01:00:00 24.7 11 Sudoeste 23 Sur 0 -- -- 57
2019-07-26 00:00:00 25.8 12 Sudoeste 30 Sudoeste 0 -- -- 53
2019-07-25 23:00:00 27.9 13 Sudoeste 28 Sudoeste 0 -- -- 47
2019-07-25 22:00:00 30.8 9 Sudoeste 26 Sudoeste 0 -- -- 25
2019-07-25 21:00:00 33.6 14 Sudoeste 34 Oeste 0 -- -- 19
2019-07-25 20:00:00 34.5 24 Oeste 40 Oeste 0 -- -- 22
2019-07-25 19:00:00 35.3 27 Oeste 44 Oeste 0 -- -- 25
2019-07-25 18:00:00 36.3 22 Oeste 37 Oeste 0 -- -- 24
2019-07-25 17:00:00 36.4 21 Oeste 36 Oeste 0 -- -- 24
2019-07-25 16:00:00 36.3 14 Oeste 28 Oeste 0 -- -- 23
2019-07-25 15:00:00 36.1 8 Sudoeste 28 Sudoeste 0 -- -- 23
2019-07-25 14:00:00 34.2 11 Sudoeste 21 Sudoeste 0 -- -- 28
2019-07-25 13:00:00 33 8 Oeste 17 Oeste 0 -- -- 30
2019-07-25 12:00:00 31.2 6 Oeste 14 Oeste 0 -- -- 37
2019-07-25 11:00:00 28.8 5 Oeste 10 Oeste 0 -- -- 47
2019-07-25 10:00:00 26.9 3 Oeste 10 Oeste 0 -- -- 55
2019-07-25 09:00:00 24.8 3 Sur 6 Sur 0 -- -- 63
2019-07-25 08:00:00 22.1 0 Calma 8 Sur 0 -- -- 71
2019-07-25 07:00:00 22.3 5 Sur 6 Sur 0 -- -- 69
2019-07-25 06:00:00 23.3 0 Calma 12 Sudoeste 0 -- -- 65
2019-07-25 05:00:00 24.4 5 Sudoeste 17 Sudoeste 0 -- -- 62
2019-07-25 04:00:00 25 8 Sudoeste 15 Oeste 0 -- -- 60
2019-07-25 03:00:00 26.3 8 Sudoeste 14 Sudoeste 0 -- -- 54
2019-07-25 02:00:00 27.5 8 Noroeste 18 Sudoeste 0 -- -- 49
2019-07-25 01:00:00 28.9 10 Sudoeste 27 Sudoeste 0 -- -- 45
2019-07-25 00:00:00 30.3 14 Sudoeste 31 Sudoeste 0 -- -- 40
2019-07-24 23:00:00 31.9 13 Sudoeste 24 Oeste 0 -- -- 36
2019-07-24 22:00:00 33.1 10 Sudoeste 23 Oeste 0 -- -- 30
2019-07-24 21:00:00 35.6 14 Oeste 29 Oeste 0 -- -- 27
2019-07-24 20:00:00 37.4 16 Oeste 28 Oeste 0 -- -- 23
2019-07-24 19:00:00 38.5 15 Oeste 30 Oeste 0 -- -- 21
2019-07-24 18:00:00 38.8 13 Oeste 32 Oeste 0 -- -- 20
2019-07-24 17:00:00 38.6 14 Noroeste 24 Oeste 0 -- -- 22
2019-07-24 16:00:00 38.4 8 Sudoeste 23 Sudoeste 0 -- -- 20
2019-07-24 15:00:00 37.1 9 Sur 19 Sur 0 -- -- 23
2019-07-24 14:00:00 35.1 7 Oeste 15 Sudoeste 0 -- -- 31
2019-07-24 13:00:00 33.3 6 Sur 14 Sur 0 -- -- 37
2019-07-24 12:00:00 31.1 5 Sur 14 Sudoeste 0 -- -- 45
2019-07-24 11:00:00 29.2 5 Sur 11 Sur 0 -- -- 52
2019-07-24 10:00:00 27.1 3 Sudoeste 8 Oeste 0 -- -- 60
2019-07-24 09:00:00 25.6 3 Oeste 5 Sudoeste 0 -- -- 65
2019-07-24 08:00:00 23.3 0 Calma 6 Sur 0 -- -- 70
2019-07-24 07:00:00 23.4 3 Sudeste 4 Sudeste 0 -- -- 71
2019-07-24 06:00:00 24.3 0 Calma 16 Sur 0 -- -- 66
2019-07-24 05:00:00 24.9 8 Sudoeste 12 Sudoeste 0 -- -- 64
2019-07-24 04:00:00 25.9 3 Sudoeste 15 Sudoeste 0 -- -- 59
2019-07-24 03:00:00 26.8 10 Sudoeste 16 Sur 0 -- -- 56
2019-07-24 02:00:00 27.9 4 Sudoeste 15 Sudoeste 0 -- -- 51
2019-07-24 01:00:00 28.8 9 Sudoeste 20 Sudoeste 0 -- -- 50
2019-07-24 00:00:00 30 8 Oeste 24 Sudoeste 0 -- -- 46
2019-07-23 23:00:00 31.9 12 Sudoeste 26 Sudoeste 0 -- -- 41
2019-07-23 22:00:00 33.6 15 Sudoeste 28 Sudoeste 0 -- -- 38
2019-07-23 21:00:00 35.2 15 Oeste 32 Oeste 0 -- -- 29
2019-07-23 20:00:00 36.7 21 Oeste 35 Oeste 0 -- -- 27
2019-07-23 19:00:00 38 23 Oeste 38 Oeste 0 -- -- 23
2019-07-23 18:00:00 39.1 21 Oeste 32 Oeste 0 -- -- 21
2019-07-23 17:00:00 39.6 14 Oeste 37 Oeste 0 -- -- 20
2019-07-23 16:00:00 38.7 10 Sudoeste 24 Sur 0 -- -- 20
2019-07-23 15:00:00 37.1 8 Sur 22 Sur 0 -- -- 24
2019-07-23 14:00:00 35.5 7 Sur 15 Oeste 0 -- -- 27
2019-07-23 13:00:00 33.6 6 Sudeste 23 Este 0 -- -- 33
2019-07-23 12:00:00 32 7 Sudoeste 11 Oeste 0 -- -- 38
2019-07-23 11:00:00 30.3 6 Este 14 Sudeste 0 -- -- 44
2019-07-23 10:00:00 28.5 4 Sur 9 Este 0 -- -- 50
2019-07-23 09:00:00 26.2 5 Sudeste 8 Sudeste 0 -- -- 56
2019-07-23 08:00:00 24.1 2 Nordeste 8 Sur 0 -- -- 62
2019-07-23 07:00:00 24.4 6 Sudeste 9 Sudeste 0 -- -- 61
2019-07-23 06:00:00 25 3 Este 6 Este 0 -- -- 59
2019-07-23 05:00:00 25.7 2 Este 14 Sudoeste 0 -- -- 57
2019-07-23 04:00:00 26.4 11 Sudoeste 17 Sudoeste 0 -- -- 54
2019-07-23 03:00:00 27 4 Sur 10 Sudoeste 0 -- -- 52
2019-07-23 02:00:00 28 6 Sudoeste 15 Sudoeste 0 -- -- 48
2019-07-23 01:00:00 29.2 8 Sudoeste 26 Sudoeste 0 -- -- 45
2019-07-23 00:00:00 30.7 17 Sudoeste 38 Sudoeste 0 -- -- 42
2019-07-22 23:00:00 33 19 Sur 36 Sur 0 -- -- 27
2019-07-22 22:00:00 34 18 Sur 35 Sur 0 -- -- 25
2019-07-22 21:00:00 36.1 14 Sur 24 Sur 0 -- -- 22
2019-07-22 20:00:00 38.1 10 Sur 22 Sudoeste 0 -- -- 19
2019-07-22 19:00:00 39.5 6 Sudoeste 16 Sudoeste 0 -- -- 21
2019-07-22 18:00:00 39.2 11 Noroeste 21 Oeste 0 -- -- 23
2019-07-22 17:00:00 38.7 7 Sudoeste 18 Sudoeste 0 -- -- 24
2019-07-22 16:00:00 37.9 8 Sudoeste 20 Sudeste 0 -- -- 26
2019-07-22 15:00:00 37 8 Sur 18 Sudoeste 0 -- -- 29
2019-07-22 14:00:00 35.3 7 Sudoeste 15 Sudoeste 0 -- -- 33
2019-07-22 13:00:00 33.8 7 Sudeste 15 Este 0 -- -- 35
2019-07-22 12:00:00 31.6 3 Oeste 12 Noroeste 0 -- -- 39
2019-07-22 11:00:00 29.8 6 Nordeste 14 Norte 0 -- -- 45
2019-07-22 10:00:00 28.3 6 Norte 11 Norte 0 -- -- 50
2019-07-22 09:00:00 26 3 Este 10 Sur 0 -- -- 56
2019-07-22 08:00:00 23.9 8 Sur 14 Sur 0 -- -- 61
2019-07-22 07:00:00 23.7 8 Sur 9 Sur 0 -- -- 63
2019-07-22 06:00:00 23.9 6 Sur 9 Sur 0 -- -- 63
2019-07-22 05:00:00 24.8 5 Sudoeste 13 Oeste 0 -- -- 60
2019-07-22 04:00:00 25.6 9 Oeste 17 Oeste 0 -- -- 57
2019-07-22 03:00:00 26.3 6 Sudoeste 17 Sudoeste 0 -- -- 55
2019-07-22 02:00:00 27.5 9 Sudoeste 20 Oeste 0 -- -- 51
2019-07-22 01:00:00 28.9 10 Sudoeste 24 Sudoeste 0 -- -- 46
2019-07-22 00:00:00 30.4 12 Sudoeste 24 Sudoeste 0 -- -- 43
2019-07-21 23:00:00 32.2 10 Sudoeste 27 Oeste 0 -- -- 36
2019-07-21 22:00:00 33.8 14 Oeste 28 Oeste 0 -- -- 33
2019-07-21 21:00:00 36 18 Oeste 29 Oeste 0 -- -- 28
2019-07-21 20:00:00 37.5 18 Oeste 28 Oeste 0 -- -- 24
2019-07-21 19:00:00 38.7 16 Oeste 29 Oeste 0 -- -- 25
2019-07-21 18:00:00 39.5 10 Sudoeste 23 Oeste 0 -- -- 22
2019-07-21 17:00:00 39 8 Oeste 20 Sudoeste 0 -- -- 20
2019-07-21 16:00:00 38 11 Sudoeste 21 Oeste 0 -- -- 22
2019-07-21 15:00:00 36.5 7 Sudoeste 16 Sur 0 -- -- 25
2019-07-21 14:00:00 35.1 7 Sudoeste 21 Oeste 0 -- -- 27
2019-07-21 13:00:00 32.9 7 Sudoeste 14 Sudoeste 0 -- -- 30
2019-07-21 12:00:00 31.2 5 Oeste 14 Sudoeste 0 -- -- 36
2019-07-21 11:00:00 29.1 6 Oeste 14 Oeste 0 -- -- 40
2019-07-21 10:00:00 27.5 7 Sudoeste 14 Sudoeste 0 -- -- 46
2019-07-21 09:00:00 25.1 3 Sur 5 Sur 0 -- -- 50
2019-07-21 08:00:00 22.8 0 Calma 3 Este 0 -- -- 56
2019-07-21 07:00:00 23.2 0 Calma 9 Sudoeste 0 -- -- 54
2019-07-21 06:00:00 23.8 6 Sudoeste 10 Sudoeste 0 -- -- 51
2019-07-21 05:00:00 24.3 4 Sudoeste 8 Sudoeste 0 -- -- 48
2019-07-21 04:00:00 24.9 5 Sudoeste 10 Oeste 0 -- -- 45
2019-07-21 03:00:00 26.1 4 Sudoeste 10 Sudoeste 0 -- -- 40
2019-07-21 02:00:00 27.2 5 Sudoeste 19 Sudoeste 0 -- -- 36
2019-07-21 01:00:00 28.2 12 Sudoeste 25 Sudoeste 0 -- -- 37
2019-07-21 00:00:00 30.1 12 Sudoeste 22 Sudoeste 0 -- -- 34